Kelso, Missouri
Current Conditions -  °F | °C
As of 5:53 AM on Tuesday 27 Jan 2015 (Local Time) from KCGI Reporting Station
Clear Clear  
Wind Chill: 31°   Ceiling: Unl
Heat Index: 31°   Visibility: 10mi
Dew Point: 29°   Wind: 3mph
Humidity: 92%   Direction: 260°W
Pressure: 30.01"   Gusts: NA
Location:  37.19°N, 89.55°W
Report Text: KCGI 271153Z AUTO 26003KT 10SM CLR M01/M02 A3001 RMK AO2 SLP166 T10061017 10000 21017 53024 TSNO
Loading
Personal Weather Stations






























Interactive Weather Map New forecast layout! Learn more

10-Day Weather Forecast

Advertisements
Track Severe Weather on mobile